createdAt,value
2018-06-27T00:00:43.753Z,4.10
2018-06-27T00:03:11.704Z,4.10
2018-06-27T00:05:39.395Z,3.77
2018-06-27T00:08:07.376Z,3.90
2018-06-27T00:10:35.030Z,3.77
2018-06-27T00:13:03.064Z,3.30
2018-06-27T00:15:31.069Z,3.43
2018-06-27T00:17:58.687Z,4.10
2018-06-27T00:20:26.666Z,4.40
2018-06-27T00:22:54.676Z,3.53
2018-06-27T00:25:22.338Z,4.07
2018-06-27T00:27:50.327Z,3.83
2018-06-27T00:30:18.238Z,3.80
2018-06-27T00:32:46.137Z,3.60
2018-06-27T00:35:14.106Z,3.83
2018-06-27T00:37:41.765Z,3.40
2018-06-27T00:40:09.415Z,3.73
2018-06-27T00:42:37.298Z,4.00
2018-06-27T00:45:06.110Z,3.67
2018-06-27T00:47:34.041Z,4.20
2018-06-27T00:50:01.695Z,3.90
2018-06-27T00:52:29.652Z,3.40
2018-06-27T00:54:57.956Z,4.00
2018-06-27T00:57:25.867Z,4.37
2018-06-27T00:59:53.843Z,3.60
2018-06-27T01:02:21.493Z,3.83
2018-06-27T01:04:49.261Z,4.17
2018-06-27T01:07:17.510Z,3.80
2018-06-27T01:09:45.741Z,3.67
2018-06-27T01:12:13.724Z,4.30
2018-06-27T01:14:41.363Z,4.70
2018-06-27T01:17:08.981Z,4.07
2018-06-27T01:19:37.141Z,4.03
2018-06-27T01:22:05.147Z,4.37
2018-06-27T01:24:32.777Z,3.80
2018-06-27T01:27:00.732Z,3.87
2018-06-27T01:29:28.426Z,3.77
2018-06-27T01:31:56.045Z,4.20
2018-06-27T01:34:23.928Z,4.13
2018-06-27T01:36:51.824Z,3.60
2018-06-27T01:39:19.484Z,4.70
2018-06-27T01:41:47.126Z,4.30
2018-06-27T01:44:15.097Z,4.90
2018-06-27T01:46:43.066Z,4.83
2018-06-27T01:49:10.993Z,5.10
2018-06-27T01:51:38.660Z,5.30
2018-06-27T01:54:06.421Z,4.80
2018-06-27T01:56:34.046Z,5.60
2018-06-27T01:59:01.944Z,5.30
2018-06-27T02:01:29.878Z,4.37
2018-06-27T02:03:57.773Z,4.67
2018-06-27T02:06:25.394Z,4.97
2018-06-27T02:08:53.037Z,5.37
2018-06-27T02:11:20.668Z,4.40
2018-06-27T02:13:48.541Z,4.60
2018-06-27T02:16:16.195Z,5.13
2018-06-27T02:18:43.838Z,4.50
2018-06-27T02:21:11.861Z,5.40
2018-06-27T02:23:39.451Z,4.70
2018-06-27T02:26:07.060Z,4.40
2018-06-27T02:28:35.037Z,5.30
2018-06-27T02:31:02.885Z,5.63
2018-06-27T02:33:30.700Z,5.17
2018-06-27T02:35:59.663Z,5.13
2018-06-27T02:38:27.563Z,4.10
2018-06-27T02:40:55.873Z,5.23
2018-06-27T02:43:23.794Z,4.67
2018-06-27T02:45:51.627Z,5.60
2018-06-27T02:48:19.483Z,5.00
2018-06-27T02:50:47.092Z,4.53
2018-06-27T02:53:15.520Z,5.63
2018-06-27T02:55:43.137Z,5.03
2018-06-27T02:58:11.149Z,5.00
2018-06-27T03:00:38.785Z,4.93
2018-06-27T03:03:06.783Z,5.10
2018-06-27T03:05:34.450Z,5.30
2018-06-27T03:08:03.004Z,4.43
2018-06-27T03:10:30.893Z,5.03
2018-06-27T03:12:58.780Z,4.73
2018-06-27T03:15:26.446Z,5.47
2018-06-27T03:17:54.085Z,4.73
2018-06-27T03:20:21.737Z,5.07
2018-06-27T03:22:49.408Z,5.17
2018-06-27T03:25:17.048Z,5.50
2018-06-27T03:27:45.007Z,4.90
2018-06-27T03:30:13.011Z,4.83
2018-06-27T03:32:40.990Z,5.00
2018-06-27T03:35:08.865Z,5.30
2018-06-27T03:37:36.505Z,5.70
2018-06-27T03:40:04.125Z,5.13
2018-06-27T03:42:31.787Z,4.80
2018-06-27T03:44:59.836Z,4.90
2018-06-27T03:47:27.457Z,5.23
2018-06-27T03:49:55.355Z,5.10
2018-06-27T03:52:23.118Z,5.27
2018-06-27T03:54:51.058Z,5.60
2018-06-27T03:57:18.680Z,4.93
2018-06-27T03:59:46.604Z,4.60
2018-06-27T04:02:14.869Z,5.77
2018-06-27T04:04:42.566Z,5.37
2018-06-27T04:07:10.631Z,4.57
2018-06-27T04:09:38.246Z,6.20
2018-06-27T04:12:06.268Z,5.20
2018-06-27T04:14:34.049Z,5.13
2018-06-27T04:17:01.938Z,5.23
2018-06-27T04:19:29.546Z,5.70
2018-06-27T04:21:57.729Z,6.03
2018-06-27T04:24:25.440Z,5.13
2018-06-27T04:26:53.567Z,4.50
2018-06-27T04:32:23.514Z,5.13
2018-06-27T04:34:51.156Z,5.07
2018-06-27T04:37:19.303Z,5.30
2018-06-27T04:39:46.996Z,5.50
2018-06-27T04:42:15.041Z,4.97
2018-06-27T04:44:42.751Z,5.53
2018-06-27T04:47:10.737Z,5.30
2018-06-27T04:49:38.424Z,5.03
2018-06-27T04:52:06.486Z,5.50
2018-06-27T04:54:34.450Z,5.10
2018-06-27T04:57:02.229Z,6.13
2018-06-27T04:59:30.016Z,5.03
2018-06-27T05:01:57.873Z,4.67
2018-06-27T05:04:25.476Z,5.00
2018-06-27T05:06:54.109Z,4.87
2018-06-27T05:09:22.028Z,6.00
2018-06-27T05:11:49.636Z,4.67
2018-06-27T05:14:17.284Z,5.40
2018-06-27T05:16:44.987Z,5.07
2018-06-27T05:19:12.983Z,4.80
2018-06-27T05:21:40.977Z,4.83
2018-06-27T05:24:08.603Z,5.20
2018-06-27T05:26:36.280Z,4.80
2018-06-27T05:29:03.998Z,4.50
2018-06-27T05:31:32.524Z,4.60
2018-06-27T05:34:00.267Z,4.90
2018-06-27T05:36:27.821Z,6.70
2018-06-27T05:38:55.712Z,6.03
2018-06-27T05:41:23.384Z,5.50
2018-06-27T05:43:51.015Z,5.67
2018-06-27T05:46:18.919Z,6.10
2018-06-27T05:48:46.540Z,5.17
2018-06-27T05:51:14.160Z,5.20
2018-06-27T05:53:41.886Z,4.97
2018-06-27T05:56:09.667Z,5.27
2018-06-27T05:58:37.441Z,4.63
2018-06-27T06:01:05.638Z,5.17
2018-06-27T06:03:33.314Z,4.93
2018-06-27T06:06:00.994Z,5.60
2018-06-27T06:08:28.836Z,6.13
2018-06-27T06:10:56.783Z,6.43
2018-06-27T06:13:24.687Z,6.10
2018-06-27T06:15:52.340Z,5.87
2018-06-27T06:18:20.135Z,5.57
2018-06-27T06:20:47.849Z,5.83
2018-06-27T06:23:15.819Z,5.37
2018-06-27T06:25:43.626Z,5.40
2018-06-27T06:28:11.577Z,5.43
2018-06-27T06:30:39.284Z,5.30
2018-06-27T06:33:07.045Z,5.90
2018-06-27T06:35:34.744Z,6.97
2018-06-27T06:38:02.399Z,6.77
2018-06-27T06:40:30.124Z,6.17
2018-06-27T06:42:57.944Z,5.97
2018-06-27T06:45:26.273Z,5.53
2018-06-27T06:47:53.886Z,5.17
2018-06-27T06:50:21.569Z,5.33
2018-06-27T06:52:49.265Z,4.50
2018-06-27T06:55:16.923Z,5.77
2018-06-27T06:57:45.228Z,4.37
2018-06-27T07:00:12.988Z,4.53
2018-06-27T07:02:40.621Z,5.17
2018-06-27T07:05:08.385Z,4.70
2018-06-27T07:07:36.102Z,5.50
2018-06-27T07:10:03.929Z,5.43
2018-06-27T07:12:31.591Z,4.47
2018-06-27T07:14:59.252Z,5.67
2018-06-27T07:17:26.945Z,5.80
2018-06-27T07:19:54.594Z,4.67
2018-06-27T07:22:22.335Z,4.93
2018-06-27T07:24:50.211Z,5.07
2018-06-27T07:27:18.164Z,5.17
2018-06-27T07:29:46.668Z,4.50
2018-06-27T07:32:14.349Z,4.67
2018-06-27T07:34:42.233Z,4.70
2018-06-27T07:37:09.888Z,4.17
2018-06-27T07:39:37.526Z,4.20
2018-06-27T07:42:05.317Z,3.87
2018-06-27T07:44:33.031Z,4.20
2018-06-27T07:47:00.882Z,4.00
2018-06-27T07:49:28.925Z,3.67
2018-06-27T07:51:56.588Z,4.40
2018-06-27T07:54:24.271Z,4.00
2018-06-27T07:56:51.953Z,4.13
2018-06-27T07:59:19.872Z,3.73
2018-06-27T08:01:47.798Z,4.93
2018-06-27T08:04:15.465Z,4.00
2018-06-27T08:06:45.002Z,4.40
2018-06-27T08:09:13.042Z,3.40
2018-06-27T08:11:41.979Z,3.53
2018-06-27T08:14:09.666Z,3.70
2018-06-27T08:16:37.588Z,3.60
2018-06-27T08:19:05.968Z,3.30
2018-06-27T08:21:33.623Z,3.40
2018-06-27T08:24:01.818Z,4.10
2018-06-27T08:26:29.516Z,3.20
2018-06-27T08:28:57.472Z,3.50
2018-06-27T08:31:25.572Z,3.77
2018-06-27T08:33:53.453Z,3.60
2018-06-27T08:36:21.088Z,3.20
2018-06-27T08:38:48.748Z,3.50
2018-06-27T08:41:16.714Z,3.20
2018-06-27T08:43:44.739Z,3.40
2018-06-27T08:46:12.912Z,3.70
2018-06-27T08:48:40.655Z,3.13
2018-06-27T08:51:08.328Z,3.17
2018-06-27T08:53:36.001Z,3.23
2018-06-27T08:56:03.706Z,3.80
2018-06-27T08:58:31.573Z,3.60
2018-06-27T09:00:59.214Z,3.20
2018-06-27T09:03:27.230Z,2.97
2018-06-27T09:05:54.887Z,3.03
2018-06-27T09:08:22.681Z,3.13
2018-06-27T09:10:50.666Z,3.50
2018-06-27T09:13:18.583Z,3.50
2018-06-27T09:15:46.587Z,2.97
2018-06-27T09:18:14.489Z,3.00
2018-06-27T09:20:42.207Z,2.47
2018-06-27T09:23:10.197Z,3.60
2018-06-27T09:25:38.115Z,3.10
2018-06-27T09:28:05.925Z,3.30
2018-06-27T09:30:33.569Z,2.90
2018-06-27T09:33:01.214Z,3.00
2018-06-27T09:35:29.747Z,3.00
2018-06-27T09:37:57.440Z,2.93
2018-06-27T09:40:25.343Z,2.90
2018-06-27T09:42:53.442Z,3.37
2018-06-27T09:45:21.110Z,3.03
2018-06-27T09:47:48.739Z,3.40
2018-06-27T09:50:16.461Z,2.90
2018-06-27T09:52:44.540Z,3.13
2018-06-27T09:55:12.313Z,3.10
2018-06-27T09:57:39.977Z,3.70
2018-06-27T10:00:12.136Z,3.20
2018-06-27T10:02:40.095Z,2.30
2018-06-27T10:05:07.750Z,3.07
2018-06-27T10:07:35.788Z,2.63
2018-06-27T10:10:03.414Z,2.60
2018-06-27T10:12:31.372Z,3.13
2018-06-27T10:14:59.084Z,2.60
2018-06-27T10:17:26.953Z,2.87
2018-06-27T10:19:54.573Z,2.80
2018-06-27T10:22:22.396Z,2.90
2018-06-27T10:24:50.446Z,2.60
2018-06-27T10:27:18.115Z,3.13
2018-06-27T10:29:46.095Z,2.77
2018-06-27T10:32:13.822Z,3.00
2018-06-27T10:34:41.450Z,3.20
2018-06-27T10:37:09.113Z,2.83
2018-06-27T10:39:36.773Z,2.60
2018-06-27T10:42:04.893Z,3.47
2018-06-27T10:44:33.026Z,2.90
2018-06-27T10:47:01.625Z,3.20
2018-06-27T10:49:30.012Z,2.80
2018-06-27T10:51:57.707Z,3.47
2018-06-27T10:54:25.489Z,2.60
2018-06-27T10:56:53.249Z,3.07
2018-06-27T10:59:21.039Z,2.80
2018-06-27T11:01:48.699Z,3.07
2018-06-27T11:04:16.338Z,2.83
2018-06-27T11:06:44.536Z,2.67
2018-06-27T11:09:12.482Z,2.00
2018-06-27T11:11:40.090Z,3.03
2018-06-27T11:14:07.759Z,3.23
2018-06-27T11:16:36.051Z,3.00
2018-06-27T11:19:03.687Z,3.03
2018-06-27T11:21:31.282Z,2.50
2018-06-27T11:23:59.022Z,3.20
2018-06-27T11:26:26.667Z,2.67
2018-06-27T11:28:54.293Z,2.90
2018-06-27T11:31:22.172Z,2.67
2018-06-27T11:33:49.773Z,2.70
2018-06-27T11:36:17.035Z,2.67
2018-06-27T11:38:44.864Z,2.87
2018-06-27T11:41:13.080Z,3.20
2018-06-27T11:43:41.041Z,3.33
2018-06-27T11:46:08.672Z,3.67
2018-06-27T11:48:36.794Z,3.40
2018-06-27T11:51:05.484Z,4.80
2018-06-27T11:53:33.493Z,4.00
2018-06-27T11:56:01.143Z,4.00
2018-06-27T11:58:29.341Z,4.40
2018-06-27T12:00:57.336Z,4.03
2018-06-27T12:03:24.962Z,4.50
2018-06-27T12:05:52.673Z,4.10
2018-06-27T12:08:20.602Z,4.90
2018-06-27T12:10:48.579Z,5.10
2018-06-27T12:13:16.313Z,4.27
2018-06-27T12:15:43.906Z,3.93
2018-06-27T12:18:11.526Z,4.70
2018-06-27T12:20:39.467Z,4.33
2018-06-27T12:23:07.132Z,4.87
2018-06-27T12:25:34.994Z,4.67
2018-06-27T12:28:02.873Z,4.43
2018-06-27T12:30:30.523Z,3.57
2018-06-27T12:32:58.152Z,5.07
2018-06-27T12:35:25.933Z,6.60
2018-06-27T12:37:54.069Z,6.33
2018-06-27T12:40:21.837Z,6.10
2018-06-27T12:45:52.306Z,4.80
2018-06-27T12:48:19.897Z,5.60
2018-06-27T12:50:47.571Z,4.97
2018-06-27T12:53:15.386Z,5.97
2018-06-27T12:55:43.041Z,5.50
2018-06-27T12:58:10.624Z,5.13
2018-06-27T13:00:38.444Z,5.20
2018-06-27T13:03:06.244Z,5.70
2018-06-27T13:05:33.887Z,5.93
2018-06-27T13:08:01.555Z,4.97
2018-06-27T13:10:29.393Z,5.53
2018-06-27T13:12:57.630Z,6.00
2018-06-27T13:15:25.423Z,4.80
2018-06-27T13:17:53.001Z,5.93
2018-06-27T13:20:20.594Z,5.37
2018-06-27T13:22:48.155Z,5.23
2018-06-27T13:25:15.797Z,4.63
2018-06-27T13:27:43.428Z,5.80
2018-06-27T13:30:11.043Z,4.77
2018-06-27T13:32:38.857Z,5.10
2018-06-27T13:35:06.565Z,4.80
2018-06-27T13:37:34.742Z,4.43
2018-06-27T13:40:02.708Z,4.77
2018-06-27T13:42:30.328Z,4.10
2018-06-27T13:44:58.200Z,4.20
2018-06-27T13:47:26.126Z,3.83
2018-06-27T13:49:53.722Z,3.47
2018-06-27T13:52:21.846Z,3.60
2018-06-27T13:54:54.468Z,4.00
2018-06-27T13:57:22.414Z,3.67
2018-06-27T13:59:50.399Z,3.63
2018-06-27T14:02:18.183Z,4.20
2018-06-27T14:04:45.835Z,4.07
2018-06-27T14:07:13.484Z,3.40
2018-06-27T14:09:41.429Z,3.97
2018-06-27T14:12:09.046Z,3.23
2018-06-27T14:14:36.662Z,3.40
2018-06-27T14:17:04.478Z,3.20
2018-06-27T14:19:32.635Z,3.47
2018-06-27T14:22:00.502Z,2.90
2018-06-27T14:24:28.166Z,3.37
2018-06-27T14:26:55.803Z,3.20
2018-06-27T14:29:23.375Z,3.70
2018-06-27T14:31:51.056Z,3.60
2018-06-27T14:34:19.188Z,3.27
2018-06-27T14:36:46.893Z,3.27
2018-06-27T14:39:14.495Z,3.27
2018-06-27T14:41:42.135Z,3.20
2018-06-27T14:44:09.722Z,3.10
2018-06-27T14:46:37.469Z,3.27
2018-06-27T14:49:05.126Z,3.13
2018-06-27T14:51:33.473Z,2.70
2018-06-27T14:54:01.113Z,2.70
2018-06-27T14:56:28.737Z,3.00
2018-06-27T14:58:56.788Z,2.57
2018-06-27T15:01:24.464Z,2.60
2018-06-27T15:03:52.259Z,3.10
2018-06-27T15:06:19.918Z,2.40
2018-06-27T15:08:48.401Z,2.47
2018-06-27T15:11:16.010Z,2.20
2018-06-27T15:13:43.606Z,2.30
2018-06-27T15:16:11.606Z,2.57
2018-06-27T15:18:40.531Z,2.30
2018-06-27T15:21:08.185Z,2.37
2018-06-27T15:23:35.988Z,2.27
2018-06-27T15:26:04.062Z,2.00
2018-06-27T15:28:31.739Z,3.10
2018-06-27T15:30:59.348Z,1.70
2018-06-27T15:33:27.166Z,1.87
2018-06-27T15:35:54.757Z,2.30
2018-06-27T15:38:22.342Z,2.30
2018-06-27T15:40:50.188Z,2.00
2018-06-27T15:43:21.441Z,2.13
2018-06-27T15:45:49.553Z,1.97
2018-06-27T15:48:26.724Z,1.90
2018-06-27T15:53:27.763Z,1.63
2018-06-27T15:55:56.025Z,2.43
2018-06-27T15:58:23.942Z,1.70
2018-06-27T16:00:51.865Z,1.53
2018-06-27T16:03:19.689Z,2.10
2018-06-27T16:05:47.577Z,1.40
2018-06-27T16:08:15.283Z,2.07
2018-06-27T16:10:43.070Z,1.90
2018-06-27T16:13:11.251Z,1.73
2018-06-27T16:15:38.905Z,2.17
2018-06-27T16:18:06.669Z,1.77
2018-06-27T16:20:34.653Z,1.90
2018-06-27T16:23:04.483Z,2.00
2018-06-27T16:25:32.120Z,1.70
2018-06-27T16:27:59.741Z,1.87
2018-06-27T16:30:27.602Z,2.13
2018-06-27T16:32:55.215Z,2.23
2018-06-27T16:35:23.008Z,1.90
2018-06-27T16:37:50.625Z,2.20
2018-06-27T16:40:18.238Z,1.90
2018-06-27T16:42:46.251Z,2.10
2018-06-27T16:45:13.890Z,1.57
2018-06-27T16:47:41.551Z,1.60
2018-06-27T16:50:09.545Z,1.67
2018-06-27T16:52:37.191Z,1.40
2018-06-27T16:55:05.062Z,1.90
2018-06-27T16:57:32.656Z,1.70
2018-06-27T17:00:00.638Z,1.63
2018-06-27T17:02:28.277Z,1.60
2018-06-27T17:04:55.989Z,1.60
2018-06-27T17:07:23.932Z,1.47
2018-06-27T17:09:51.521Z,1.70
2018-06-27T17:12:19.470Z,1.20
2018-06-27T17:14:47.059Z,1.20
2018-06-27T17:17:14.904Z,1.60
2018-06-27T17:19:42.491Z,1.60
2018-06-27T17:22:10.418Z,1.70
2018-06-27T17:24:38.249Z,1.27
2018-06-27T17:27:06.201Z,1.33
2018-06-27T17:29:34.032Z,1.00
2018-06-27T17:32:01.635Z,1.57
2018-06-27T17:34:29.274Z,1.67
2018-06-27T17:36:57.129Z,1.30
2018-06-27T17:39:24.776Z,1.53
2018-06-27T17:41:52.748Z,1.20
2018-06-27T17:44:20.718Z,1.70
2018-06-27T17:46:48.698Z,1.63
2018-06-27T17:49:16.356Z,1.30
2018-06-27T17:51:44.002Z,1.30
2018-06-27T17:54:11.663Z,1.50
2018-06-27T17:56:39.369Z,1.27
2018-06-27T17:59:07.187Z,1.40
2018-06-27T18:01:35.962Z,1.30
2018-06-27T18:04:03.882Z,1.90
2018-06-27T18:06:31.581Z,2.53
2018-06-27T18:08:59.465Z,1.73
2018-06-27T18:11:27.542Z,1.40
2018-06-27T18:13:55.916Z,1.67
2018-06-27T18:16:23.542Z,1.90
2018-06-27T18:18:51.314Z,1.50
2018-06-27T18:21:19.237Z,2.33
2018-06-27T18:23:47.057Z,1.67
2018-06-27T18:29:24.058Z,2.33
2018-06-27T18:31:51.684Z,2.87
2018-06-27T18:34:19.643Z,2.17
2018-06-27T18:36:47.687Z,2.00
2018-06-27T18:39:15.306Z,2.03
2018-06-27T18:41:42.926Z,2.20
2018-06-27T18:44:10.847Z,2.20
2018-06-27T18:46:38.959Z,2.10
2018-06-27T18:49:06.732Z,1.83
2018-06-27T18:51:34.314Z,2.23
2018-06-27T18:54:01.881Z,2.40
2018-06-27T18:56:29.836Z,2.37
2018-06-27T18:58:57.424Z,2.53
2018-06-27T19:01:25.326Z,1.90
2018-06-27T19:03:53.333Z,2.03
2018-06-27T19:06:21.002Z,1.80
2018-06-27T19:08:48.665Z,2.10
2018-06-27T19:11:16.794Z,2.30
2018-06-27T19:13:44.392Z,2.20
2018-06-27T19:16:12.199Z,2.00
2018-06-27T19:18:40.524Z,1.87
2018-06-27T19:21:08.358Z,1.73
2018-06-27T19:23:36.301Z,1.97
2018-06-27T19:26:03.986Z,2.33
2018-06-27T19:28:31.623Z,2.70
2018-06-27T19:30:59.654Z,2.00
2018-06-27T19:33:27.681Z,2.63
2018-06-27T19:35:55.550Z,2.20
2018-06-27T19:38:23.491Z,2.20
2018-06-27T19:40:51.402Z,2.10
2018-06-27T19:43:19.005Z,2.37
2018-06-27T19:45:46.725Z,2.00
2018-06-27T19:48:14.324Z,2.07
2018-06-27T19:50:42.747Z,1.53
2018-06-27T19:53:10.424Z,2.60
2018-06-27T19:55:38.201Z,1.47
2018-06-27T19:58:06.782Z,2.67
2018-06-27T20:00:35.517Z,2.00
2018-06-27T20:03:05.082Z,1.80
2018-06-27T20:05:34.537Z,1.73
2018-06-27T20:08:04.548Z,1.97
2018-06-27T20:10:33.460Z,2.17
2018-06-27T20:13:02.037Z,1.80
2018-06-27T20:15:30.812Z,2.00
2018-06-27T20:18:00.483Z,2.30
2018-06-27T20:20:29.820Z,1.80
2018-06-27T20:22:58.764Z,2.10
2018-06-27T20:25:27.840Z,1.97
2018-06-27T20:27:56.696Z,1.90
2018-06-27T20:30:25.802Z,1.80
2018-06-27T20:32:54.820Z,1.67
2018-06-27T20:35:23.623Z,1.60
2018-06-27T20:37:52.471Z,2.00
2018-06-27T20:40:21.373Z,1.60
2018-06-27T20:42:50.049Z,2.00
2018-06-27T20:45:19.069Z,1.93
2018-06-27T20:47:48.196Z,1.80
2018-06-27T20:50:17.361Z,1.60
2018-06-27T20:52:46.593Z,1.90
2018-06-27T20:55:14.527Z,1.70
2018-06-27T20:57:42.174Z,1.97
2018-06-27T21:00:11.548Z,1.50
2018-06-27T21:02:40.493Z,1.80
2018-06-27T21:05:09.968Z,1.57
2018-06-27T21:07:38.800Z,1.63
2018-06-27T21:10:07.665Z,1.77
2018-06-27T21:12:36.678Z,1.80
2018-06-27T21:15:05.735Z,1.70
2018-06-27T21:17:34.950Z,1.97
2018-06-27T21:20:04.185Z,1.80
2018-06-27T21:22:33.176Z,1.50
2018-06-27T21:25:02.621Z,1.60
2018-06-27T21:27:31.555Z,1.60
2018-06-27T21:30:00.679Z,1.53
2018-06-27T21:32:29.365Z,1.60
2018-06-27T21:34:58.759Z,1.70
2018-06-27T21:37:28.322Z,1.43
2018-06-27T21:39:57.722Z,1.67
2018-06-27T21:42:25.700Z,1.87
2018-06-27T21:44:56.308Z,1.37
2018-06-27T21:47:25.609Z,1.80
2018-06-27T21:49:54.991Z,1.97
2018-06-27T21:52:24.340Z,1.60
2018-06-27T21:54:53.447Z,1.53
2018-06-27T21:57:22.891Z,1.70
2018-06-27T21:59:52.405Z,1.60
2018-06-27T22:02:21.436Z,1.70
2018-06-27T22:04:50.404Z,1.87
2018-06-27T22:07:20.469Z,1.70
2018-06-27T22:09:48.330Z,1.63
2018-06-27T22:12:15.947Z,1.50
2018-06-27T22:14:43.582Z,1.97
2018-06-27T22:17:12.494Z,1.80
2018-06-27T22:19:41.222Z,1.80
2018-06-27T22:22:09.937Z,1.60
2018-06-27T22:24:39.056Z,2.50
2018-06-27T22:27:08.310Z,1.70
2018-06-27T22:29:38.483Z,1.73
2018-06-27T22:32:07.503Z,2.00
2018-06-27T22:34:36.813Z,1.73
2018-06-27T22:37:04.621Z,1.60
2018-06-27T22:39:32.249Z,1.80
2018-06-27T22:42:00.843Z,1.70
2018-06-27T22:44:29.831Z,1.60
2018-06-27T22:46:58.997Z,1.77
2018-06-27T22:49:27.877Z,1.33
2018-06-27T22:51:56.691Z,1.70
2018-06-27T22:54:25.649Z,2.07
2018-06-27T22:56:55.185Z,1.80
2018-06-27T22:59:24.531Z,1.63
2018-06-27T23:01:53.511Z,2.10
2018-06-27T23:04:22.793Z,1.60
2018-06-27T23:06:51.863Z,2.20
2018-06-27T23:09:20.544Z,2.00
2018-06-27T23:11:49.058Z,1.50
2018-06-27T23:14:18.147Z,1.80
2018-06-27T23:16:47.034Z,1.80
2018-06-27T23:19:15.880Z,1.60
2018-06-27T23:21:44.220Z,2.20
2018-06-27T23:24:11.841Z,1.33
2018-06-27T23:26:39.713Z,1.53
2018-06-27T23:29:07.401Z,2.03
2018-06-27T23:31:35.247Z,1.80
2018-06-27T23:34:02.849Z,1.30
2018-06-27T23:36:30.432Z,2.00
2018-06-27T23:38:58.141Z,1.30
2018-06-27T23:41:25.989Z,1.30
2018-06-27T23:43:53.587Z,2.03
2018-06-27T23:46:21.278Z,1.40
2018-06-27T23:48:49.363Z,1.50
2018-06-27T23:51:16.954Z,1.70
2018-06-27T23:53:44.626Z,1.80
2018-06-27T23:56:12.823Z,1.40
2018-06-27T23:58:40.634Z,1.50
